sensor_id;sensor_type;location;lat;lon;timestamp;P1;durP1;ratioP1;P2;durP2;ratioP2
19780;SDS011;10050;55.492;13.506;2023-07-13T00:02:14;4.40;;;1.90;;
19780;SDS011;10050;55.492;13.506;2023-07-13T00:04:40;4.20;;;1.47;;
19780;SDS011;10050;55.492;13.506;2023-07-13T00:07:06;2.17;;;1.50;;
19780;SDS011;10050;55.492;13.506;2023-07-13T00:09:33;3.57;;;1.30;;
19780;SDS011;10050;55.492;13.506;2023-07-13T00:11:58;2.63;;;1.67;;
19780;SDS011;10050;55.492;13.506;2023-07-13T00:14:25;3.50;;;1.47;;
19780;SDS011;10050;55.492;13.506;2023-07-13T00:16:52;3.03;;;1.60;;
19780;SDS011;10050;55.492;13.506;2023-07-13T00:19:18;2.30;;;1.40;;
19780;SDS011;10050;55.492;13.506;2023-07-13T00:21:44;1.50;;;1.40;;
19780;SDS011;10050;55.492;13.506;2023-07-13T00:24:11;1.93;;;1.60;;
19780;SDS011;10050;55.492;13.506;2023-07-13T00:26:39;1.90;;;1.50;;
19780;SDS011;10050;55.492;13.506;2023-07-13T00:29:05;3.20;;;1.70;;
19780;SDS011;10050;55.492;13.506;2023-07-13T00:31:34;1.83;;;1.60;;
19780;SDS011;10050;55.492;13.506;2023-07-13T00:34:00;2.80;;;1.50;;
19780;SDS011;10050;55.492;13.506;2023-07-13T00:36:26;5.00;;;1.40;;
19780;SDS011;10050;55.492;13.506;2023-07-13T00:38:54;3.03;;;1.50;;
19780;SDS011;10050;55.492;13.506;2023-07-13T00:41:20;3.33;;;1.33;;
19780;SDS011;10050;55.492;13.506;2023-07-13T00:43:45;1.87;;;1.30;;
19780;SDS011;10050;55.492;13.506;2023-07-13T00:46:17;3.93;;;1.70;;
19780;SDS011;10050;55.492;13.506;2023-07-13T00:48:54;2.80;;;1.50;;
19780;SDS011;10050;55.492;13.506;2023-07-13T00:51:26;3.53;;;1.33;;
19780;SDS011;10050;55.492;13.506;2023-07-13T00:53:56;4.13;;;1.50;;
19780;SDS011;10050;55.492;13.506;2023-07-13T00:56:25;1.57;;;1.33;;
19780;SDS011;10050;55.492;13.506;2023-07-13T00:58:52;2.80;;;1.30;;
19780;SDS011;10050;55.492;13.506;2023-07-13T01:01:18;3.13;;;1.50;;
19780;SDS011;10050;55.492;13.506;2023-07-13T01:03:44;3.20;;;1.40;;
19780;SDS011;10050;55.492;13.506;2023-07-13T01:06:11;1.50;;;1.40;;
19780;SDS011;10050;55.492;13.506;2023-07-13T01:08:38;1.90;;;1.53;;
19780;SDS011;10050;55.492;13.506;2023-07-13T01:11:05;1.90;;;1.60;;
19780;SDS011;10050;55.492;13.506;2023-07-13T01:13:33;7.47;;;2.00;;
19780;SDS011;10050;55.492;13.506;2023-07-13T01:15:58;2.83;;;1.40;;
19780;SDS011;10050;55.492;13.506;2023-07-13T01:18:30;1.80;;;1.37;;
19780;SDS011;10050;55.492;13.506;2023-07-13T01:20:59;1.80;;;1.47;;
19780;SDS011;10050;55.492;13.506;2023-07-13T01:23:26;4.43;;;1.57;;
19780;SDS011;10050;55.492;13.506;2023-07-13T01:25:53;1.67;;;1.40;;
19780;SDS011;10050;55.492;13.506;2023-07-13T01:28:20;4.20;;;1.50;;
19780;SDS011;10050;55.492;13.506;2023-07-13T01:30:46;2.40;;;1.53;;
19780;SDS011;10050;55.492;13.506;2023-07-13T01:33:13;3.00;;;1.40;;
19780;SDS011;10050;55.492;13.506;2023-07-13T01:35:41;2.87;;;1.70;;
19780;SDS011;10050;55.492;13.506;2023-07-13T01:38:08;3.17;;;1.57;;
19780;SDS011;10050;55.492;13.506;2023-07-13T01:40:35;2.27;;;1.47;;
19780;SDS011;10050;55.492;13.506;2023-07-13T01:43:01;3.13;;;1.40;;
19780;SDS011;10050;55.492;13.506;2023-07-13T01:45:27;2.17;;;1.43;;
19780;SDS011;10050;55.492;13.506;2023-07-13T01:47:53;6.70;;;1.37;;
19780;SDS011;10050;55.492;13.506;2023-07-13T01:50:19;5.10;;;1.50;;
19780;SDS011;10050;55.492;13.506;2023-07-13T01:52:45;4.13;;;1.60;;
19780;SDS011;10050;55.492;13.506;2023-07-13T01:55:10;1.50;;;1.40;;
19780;SDS011;10050;55.492;13.506;2023-07-13T01:57:36;1.37;;;1.27;;
19780;SDS011;10050;55.492;13.506;2023-07-13T02:00:05;5.17;;;1.67;;
19780;SDS011;10050;55.492;13.506;2023-07-13T02:02:32;1.83;;;1.50;;
19780;SDS011;10050;55.492;13.506;2023-07-13T02:04:57;2.70;;;1.30;;
19780;SDS011;10050;55.492;13.506;2023-07-13T02:07:23;1.73;;;1.50;;
19780;SDS011;10050;55.492;13.506;2023-07-13T02:09:49;3.00;;;2.07;;
19780;SDS011;10050;55.492;13.506;2023-07-13T02:12:14;1.23;;;1.10;;
19780;SDS011;10050;55.492;13.506;2023-07-13T02:14:40;1.70;;;1.23;;
19780;SDS011;10050;55.492;13.506;2023-07-13T02:17:05;2.30;;;1.20;;
19780;SDS011;10050;55.492;13.506;2023-07-13T02:19:31;2.07;;;1.00;;
19780;SDS011;10050;55.492;13.506;2023-07-13T02:21:57;2.37;;;1.13;;
19780;SDS011;10050;55.492;13.506;2023-07-13T02:24:23;2.40;;;1.47;;
19780;SDS011;10050;55.492;13.506;2023-07-13T02:26:48;3.30;;;1.40;;
19780;SDS011;10050;55.492;13.506;2023-07-13T02:29:14;2.00;;;1.27;;
19780;SDS011;10050;55.492;13.506;2023-07-13T02:31:40;2.73;;;1.40;;
19780;SDS011;10050;55.492;13.506;2023-07-13T02:34:05;2.30;;;1.43;;
19780;SDS011;10050;55.492;13.506;2023-07-13T02:36:31;2.43;;;1.40;;
19780;SDS011;10050;55.492;13.506;2023-07-13T02:39:01;2.50;;;1.50;;
19780;SDS011;10050;55.492;13.506;2023-07-13T02:41:29;3.67;;;1.70;;
19780;SDS011;10050;55.492;13.506;2023-07-13T02:43:54;2.23;;;1.60;;
19780;SDS011;10050;55.492;13.506;2023-07-13T02:46:28;2.63;;;1.47;;
19780;SDS011;10050;55.492;13.506;2023-07-13T02:48:54;4.30;;;1.50;;
19780;SDS011;10050;55.492;13.506;2023-07-13T02:51:19;2.77;;;1.70;;
19780;SDS011;10050;55.492;13.506;2023-07-13T02:53:45;2.03;;;1.50;;
19780;SDS011;10050;55.492;13.506;2023-07-13T02:56:11;1.63;;;1.50;;
19780;SDS011;10050;55.492;13.506;2023-07-13T02:58:37;3.90;;;1.73;;
19780;SDS011;10050;55.492;13.506;2023-07-13T03:01:05;4.53;;;1.97;;
19780;SDS011;10050;55.492;13.506;2023-07-13T03:03:32;7.43;;;1.97;;
19780;SDS011;10050;55.492;13.506;2023-07-13T03:05:59;1.60;;;1.30;;
19780;SDS011;10050;55.492;13.506;2023-07-13T03:08:27;7.17;;;1.93;;
19780;SDS011;10050;55.492;13.506;2023-07-13T03:10:59;1.87;;;1.70;;
19780;SDS011;10050;55.492;13.506;2023-07-13T03:13:30;2.57;;;1.57;;
19780;SDS011;10050;55.492;13.506;2023-07-13T03:15:56;3.23;;;1.50;;
19780;SDS011;10050;55.492;13.506;2023-07-13T03:18:22;3.17;;;1.70;;
19780;SDS011;10050;55.492;13.506;2023-07-13T03:20:50;4.23;;;1.63;;
19780;SDS011;10050;55.492;13.506;2023-07-13T03:23:16;1.53;;;1.33;;
19780;SDS011;10050;55.492;13.506;2023-07-13T03:25:42;2.67;;;1.50;;
19780;SDS011;10050;55.492;13.506;2023-07-13T03:28:10;2.27;;;1.40;;
19780;SDS011;10050;55.492;13.506;2023-07-13T03:30:36;3.13;;;1.60;;
19780;SDS011;10050;55.492;13.506;2023-07-13T03:33:01;2.57;;;1.70;;
19780;SDS011;10050;55.492;13.506;2023-07-13T03:35:27;3.97;;;1.50;;
19780;SDS011;10050;55.492;13.506;2023-07-13T03:37:53;2.13;;;1.60;;
19780;SDS011;10050;55.492;13.506;2023-07-13T03:40:18;2.97;;;1.90;;
19780;SDS011;10050;55.492;13.506;2023-07-13T03:42:44;1.67;;;1.57;;
19780;SDS011;10050;55.492;13.506;2023-07-13T03:45:10;3.17;;;1.80;;
19780;SDS011;10050;55.492;13.506;2023-07-13T03:47:35;2.27;;;1.40;;
19780;SDS011;10050;55.492;13.506;2023-07-13T03:50:01;1.70;;;1.50;;
19780;SDS011;10050;55.492;13.506;2023-07-13T03:52:27;2.13;;;1.30;;
19780;SDS011;10050;55.492;13.506;2023-07-13T03:54:53;4.00;;;1.63;;
19780;SDS011;10050;55.492;13.506;2023-07-13T03:57:18;2.53;;;1.50;;
19780;SDS011;10050;55.492;13.506;2023-07-13T03:59:44;6.00;;;1.50;;
19780;SDS011;10050;55.492;13.506;2023-07-13T04:02:10;2.03;;;1.40;;
19780;SDS011;10050;55.492;13.506;2023-07-13T04:04:35;7.17;;;1.53;;
19780;SDS011;10050;55.492;13.506;2023-07-13T04:07:01;2.43;;;1.30;;
19780;SDS011;10050;55.492;13.506;2023-07-13T04:09:27;2.97;;;1.60;;
19780;SDS011;10050;55.492;13.506;2023-07-13T04:11:52;2.97;;;1.30;;
19780;SDS011;10050;55.492;13.506;2023-07-13T04:14:18;1.73;;;1.43;;
19780;SDS011;10050;55.492;13.506;2023-07-13T04:16:43;3.17;;;1.43;;
19780;SDS011;10050;55.492;13.506;2023-07-13T04:19:09;3.20;;;1.47;;
19780;SDS011;10050;55.492;13.506;2023-07-13T04:21:35;1.77;;;1.57;;
19780;SDS011;10050;55.492;13.506;2023-07-13T04:24:02;2.50;;;1.67;;
19780;SDS011;10050;55.492;13.506;2023-07-13T04:26:29;5.23;;;2.13;;
19780;SDS011;10050;55.492;13.506;2023-07-13T04:28:54;4.67;;;2.00;;
19780;SDS011;10050;55.492;13.506;2023-07-13T04:31:21;5.13;;;1.80;;
19780;SDS011;10050;55.492;13.506;2023-07-13T04:33:47;3.03;;;1.40;;
19780;SDS011;10050;55.492;13.506;2023-07-13T04:36:14;5.47;;;1.93;;
19780;SDS011;10050;55.492;13.506;2023-07-13T04:38:41;3.77;;;1.97;;
19780;SDS011;10050;55.492;13.506;2023-07-13T04:41:07;3.27;;;1.37;;
19780;SDS011;10050;55.492;13.506;2023-07-13T04:43:34;3.37;;;1.77;;
19780;SDS011;10050;55.492;13.506;2023-07-13T04:46:08;8.27;;;2.30;;
19780;SDS011;10050;55.492;13.506;2023-07-13T04:48:36;6.30;;;1.83;;
19780;SDS011;10050;55.492;13.506;2023-07-13T04:51:02;3.67;;;2.13;;
19780;SDS011;10050;55.492;13.506;2023-07-13T04:53:29;3.90;;;2.00;;
19780;SDS011;10050;55.492;13.506;2023-07-13T04:55:55;4.20;;;2.10;;
19780;SDS011;10050;55.492;13.506;2023-07-13T04:58:21;3.37;;;2.20;;
19780;SDS011;10050;55.492;13.506;2023-07-13T05:00:47;6.40;;;2.20;;
19780;SDS011;10050;55.492;13.506;2023-07-13T05:03:13;7.63;;;2.13;;
19780;SDS011;10050;55.492;13.506;2023-07-13T05:05:39;6.20;;;2.23;;
19780;SDS011;10050;55.492;13.506;2023-07-13T05:08:04;4.43;;;2.10;;
19780;SDS011;10050;55.492;13.506;2023-07-13T05:10:30;7.87;;;2.00;;
19780;SDS011;10050;55.492;13.506;2023-07-13T05:12:56;8.43;;;2.47;;
19780;SDS011;10050;55.492;13.506;2023-07-13T05:15:22;5.07;;;1.80;;
19780;SDS011;10050;55.492;13.506;2023-07-13T05:17:48;6.00;;;2.40;;
19780;SDS011;10050;55.492;13.506;2023-07-13T05:20:14;6.03;;;2.13;;
19780;SDS011;10050;55.492;13.506;2023-07-13T05:22:41;7.00;;;2.47;;
19780;SDS011;10050;55.492;13.506;2023-07-13T05:25:07;4.87;;;1.47;;
19780;SDS011;10050;55.492;13.506;2023-07-13T05:27:34;6.50;;;2.43;;
19780;SDS011;10050;55.492;13.506;2023-07-13T05:30:01;7.43;;;2.17;;
19780;SDS011;10050;55.492;13.506;2023-07-13T05:32:27;3.43;;;1.90;;
19780;SDS011;10050;55.492;13.506;2023-07-13T05:34:53;9.50;;;1.90;;
19780;SDS011;10050;55.492;13.506;2023-07-13T05:37:18;6.00;;;2.00;;
19780;SDS011;10050;55.492;13.506;2023-07-13T05:39:44;7.20;;;2.67;;
19780;SDS011;10050;55.492;13.506;2023-07-13T05:42:10;6.67;;;2.60;;
19780;SDS011;10050;55.492;13.506;2023-07-13T05:44:35;5.33;;;2.40;;
19780;SDS011;10050;55.492;13.506;2023-07-13T05:47:01;3.20;;;2.03;;
19780;SDS011;10050;55.492;13.506;2023-07-13T05:49:27;3.47;;;1.70;;
19780;SDS011;10050;55.492;13.506;2023-07-13T05:51:52;3.97;;;2.17;;
19780;SDS011;10050;55.492;13.506;2023-07-13T05:54:18;4.80;;;2.13;;
19780;SDS011;10050;55.492;13.506;2023-07-13T05:56:44;2.00;;;1.70;;
19780;SDS011;10050;55.492;13.506;2023-07-13T05:59:09;2.60;;;1.77;;
19780;SDS011;10050;55.492;13.506;2023-07-13T06:01:35;4.43;;;2.07;;
19780;SDS011;10050;55.492;13.506;2023-07-13T06:04:00;5.83;;;2.20;;
19780;SDS011;10050;55.492;13.506;2023-07-13T06:06:26;5.33;;;2.00;;
19780;SDS011;10050;55.492;13.506;2023-07-13T06:08:52;4.70;;;1.80;;
19780;SDS011;10050;55.492;13.506;2023-07-13T06:11:19;6.40;;;1.50;;
19780;SDS011;10050;55.492;13.506;2023-07-13T06:13:47;1.77;;;1.60;;
19780;SDS011;10050;55.492;13.506;2023-07-13T06:16:13;3.27;;;1.70;;
19780;SDS011;10050;55.492;13.506;2023-07-13T06:18:39;3.43;;;1.93;;
19780;SDS011;10050;55.492;13.506;2023-07-13T06:21:09;2.27;;;1.70;;
19780;SDS011;10050;55.492;13.506;2023-07-13T06:23:36;5.97;;;2.10;;
19780;SDS011;10050;55.492;13.506;2023-07-13T06:26:03;5.70;;;1.90;;
19780;SDS011;10050;55.492;13.506;2023-07-13T06:28:29;6.00;;;1.90;;
19780;SDS011;10050;55.492;13.506;2023-07-13T06:30:56;8.00;;;1.90;;
19780;SDS011;10050;55.492;13.506;2023-07-13T06:33:22;4.27;;;2.10;;
19780;SDS011;10050;55.492;13.506;2023-07-13T06:35:48;2.90;;;2.13;;
19780;SDS011;10050;55.492;13.506;2023-07-13T06:38:13;3.27;;;1.60;;
19780;SDS011;10050;55.492;13.506;2023-07-13T06:40:39;3.23;;;2.10;;
19780;SDS011;10050;55.492;13.506;2023-07-13T06:43:05;4.90;;;1.80;;
19780;SDS011;10050;55.492;13.506;2023-07-13T06:45:32;5.87;;;1.93;;
19780;SDS011;10050;55.492;13.506;2023-07-13T06:48:05;2.50;;;1.77;;
19780;SDS011;10050;55.492;13.506;2023-07-13T06:50:30;3.97;;;2.00;;
19780;SDS011;10050;55.492;13.506;2023-07-13T06:52:56;5.43;;;2.50;;
19780;SDS011;10050;55.492;13.506;2023-07-13T06:55:22;2.17;;;1.97;;
19780;SDS011;10050;55.492;13.506;2023-07-13T06:57:47;4.10;;;1.70;;
19780;SDS011;10050;55.492;13.506;2023-07-13T07:00:13;4.33;;;1.80;;
19780;SDS011;10050;55.492;13.506;2023-07-13T07:02:39;3.63;;;1.57;;
19780;SDS011;10050;55.492;13.506;2023-07-13T07:05:05;2.20;;;1.70;;
19780;SDS011;10050;55.492;13.506;2023-07-13T07:07:30;4.13;;;1.57;;
19780;SDS011;10050;55.492;13.506;2023-07-13T07:09:56;3.37;;;2.00;;
19780;SDS011;10050;55.492;13.506;2023-07-13T07:12:22;3.07;;;2.00;;
19780;SDS011;10050;55.492;13.506;2023-07-13T07:14:47;3.80;;;1.70;;
19780;SDS011;10050;55.492;13.506;2023-07-13T07:17:13;3.80;;;1.80;;
19780;SDS011;10050;55.492;13.506;2023-07-13T07:19:38;2.90;;;1.73;;
19780;SDS011;10050;55.492;13.506;2023-07-13T07:22:05;3.90;;;1.57;;
19780;SDS011;10050;55.492;13.506;2023-07-13T07:24:31;5.77;;;1.77;;
19780;SDS011;10050;55.492;13.506;2023-07-13T07:26:56;3.80;;;1.40;;
19780;SDS011;10050;55.492;13.506;2023-07-13T07:29:22;2.97;;;1.50;;
19780;SDS011;10050;55.492;13.506;2023-07-13T07:31:50;2.07;;;1.70;;
19780;SDS011;10050;55.492;13.506;2023-07-13T07:34:15;3.50;;;1.80;;
19780;SDS011;10050;55.492;13.506;2023-07-13T07:36:41;2.90;;;1.73;;
19780;SDS011;10050;55.492;13.506;2023-07-13T07:39:06;3.07;;;1.93;;
19780;SDS011;10050;55.492;13.506;2023-07-13T07:41:32;4.33;;;1.57;;
19780;SDS011;10050;55.492;13.506;2023-07-13T07:43:58;4.23;;;1.77;;
19780;SDS011;10050;55.492;13.506;2023-07-13T07:46:23;4.37;;;1.80;;
19780;SDS011;10050;55.492;13.506;2023-07-13T07:48:49;3.43;;;1.50;;
19780;SDS011;10050;55.492;13.506;2023-07-13T07:51:14;2.83;;;1.67;;
19780;SDS011;10050;55.492;13.506;2023-07-13T07:53:40;4.87;;;1.53;;
19780;SDS011;10050;55.492;13.506;2023-07-13T07:56:06;3.20;;;1.57;;
19780;SDS011;10050;55.492;13.506;2023-07-13T07:58:32;4.37;;;1.67;;
19780;SDS011;10050;55.492;13.506;2023-07-13T08:01:04;3.00;;;1.50;;
19780;SDS011;10050;55.492;13.506;2023-07-13T08:03:30;2.70;;;1.60;;
19780;SDS011;10050;55.492;13.506;2023-07-13T08:05:56;2.43;;;1.37;;
19780;SDS011;10050;55.492;13.506;2023-07-13T08:08:22;2.53;;;1.50;;
19780;SDS011;10050;55.492;13.506;2023-07-13T08:10:47;4.10;;;1.43;;
19780;SDS011;10050;55.492;13.506;2023-07-13T08:13:13;3.40;;;1.37;;
19780;SDS011;10050;55.492;13.506;2023-07-13T08:15:39;2.57;;;1.20;;
19780;SDS011;10050;55.492;13.506;2023-07-13T08:18:05;2.13;;;1.30;;
19780;SDS011;10050;55.492;13.506;2023-07-13T08:20:32;2.77;;;1.47;;
19780;SDS011;10050;55.492;13.506;2023-07-13T08:22:58;2.73;;;1.40;;
19780;SDS011;10050;55.492;13.506;2023-07-13T08:25:24;2.47;;;1.33;;
19780;SDS011;10050;55.492;13.506;2023-07-13T08:27:49;2.37;;;1.47;;
19780;SDS011;10050;55.492;13.506;2023-07-13T08:30:15;3.77;;;1.63;;
19780;SDS011;10050;55.492;13.506;2023-07-13T08:32:41;3.80;;;1.60;;
19780;SDS011;10050;55.492;13.506;2023-07-13T08:35:07;4.90;;;1.60;;
19780;SDS011;10050;55.492;13.506;2023-07-13T08:37:33;3.97;;;1.80;;
19780;SDS011;10050;55.492;13.506;2023-07-13T08:39:58;2.90;;;1.37;;
19780;SDS011;10050;55.492;13.506;2023-07-13T08:45:13;4.43;;;1.43;;
19780;SDS011;10050;55.492;13.506;2023-07-13T08:48:01;2.30;;;1.50;;
19780;SDS011;10050;55.492;13.506;2023-07-13T08:50:47;2.40;;;1.73;;
19780;SDS011;10050;55.492;13.506;2023-07-13T08:53:36;2.13;;;1.20;;
19780;SDS011;10050;55.492;13.506;2023-07-13T08:56:05;4.90;;;1.50;;
19780;SDS011;10050;55.492;13.506;2023-07-13T08:58:41;2.50;;;1.43;;
19780;SDS011;10050;55.492;13.506;2023-07-13T09:06:27;3.23;;;1.33;;
19780;SDS011;10050;55.492;13.506;2023-07-13T09:09:10;2.80;;;1.13;;
19780;SDS011;10050;55.492;13.506;2023-07-13T09:14:40;2.33;;;1.63;;
19780;SDS011;10050;55.492;13.506;2023-07-13T09:17:14;3.67;;;1.60;;
19780;SDS011;10050;55.492;13.506;2023-07-13T09:19:46;4.60;;;1.83;;
19780;SDS011;10050;55.492;13.506;2023-07-13T09:22:19;3.43;;;1.70;;
19780;SDS011;10050;55.492;13.506;2023-07-13T09:24:52;2.40;;;1.27;;
19780;SDS011;10050;55.492;13.506;2023-07-13T09:27:25;2.67;;;1.33;;
19780;SDS011;10050;55.492;13.506;2023-07-13T09:32:55;2.50;;;1.40;;
19780;SDS011;10050;55.492;13.506;2023-07-13T09:35:24;2.43;;;1.37;;
19780;SDS011;10050;55.492;13.506;2023-07-13T09:40:51;4.50;;;1.87;;
19780;SDS011;10050;55.492;13.506;2023-07-13T09:43:25;2.47;;;1.80;;
19780;SDS011;10050;55.492;13.506;2023-07-13T09:45:53;2.53;;;1.57;;
19780;SDS011;10050;55.492;13.506;2023-07-13T09:48:19;2.50;;;1.50;;
19780;SDS011;10050;55.492;13.506;2023-07-13T09:50:45;5.63;;;1.70;;
19780;SDS011;10050;55.492;13.506;2023-07-13T09:53:14;4.30;;;1.70;;
19780;SDS011;10050;55.492;13.506;2023-07-13T09:55:42;2.47;;;1.40;;
19780;SDS011;10050;55.492;13.506;2023-07-13T10:00:41;2.77;;;1.23;;
19780;SDS011;10050;55.492;13.506;2023-07-13T10:05:47;2.63;;;1.47;;
19780;SDS011;10050;55.492;13.506;2023-07-13T10:08:17;2.97;;;1.43;;
19780;SDS011;10050;55.492;13.506;2023-07-13T10:13:26;2.00;;;1.20;;
19780;SDS011;10050;55.492;13.506;2023-07-13T10:15:54;3.80;;;1.50;;
19780;SDS011;10050;55.492;13.506;2023-07-13T10:18:22;1.13;;;1.10;;
19780;SDS011;10050;55.492;13.506;2023-07-13T10:20:54;6.20;;;1.60;;
19780;SDS011;10050;55.492;13.506;2023-07-13T10:23:33;3.27;;;1.47;;
19780;SDS011;10050;55.492;13.506;2023-07-13T10:26:00;3.87;;;1.57;;
19780;SDS011;10050;55.492;13.506;2023-07-13T10:28:29;2.83;;;1.37;;
19780;SDS011;10050;55.492;13.506;2023-07-13T10:30:58;6.67;;;2.40;;
19780;SDS011;10050;55.492;13.506;2023-07-13T10:33:26;3.63;;;1.50;;
19780;SDS011;10050;55.492;13.506;2023-07-13T10:35:53;7.63;;;1.70;;
19780;SDS011;10050;55.492;13.506;2023-07-13T10:38:26;3.53;;;2.03;;
19780;SDS011;10050;55.492;13.506;2023-07-13T10:43:33;6.47;;;1.97;;
19780;SDS011;10050;55.492;13.506;2023-07-13T10:46:03;4.60;;;1.80;;
19780;SDS011;10050;55.492;13.506;2023-07-13T10:48:31;2.83;;;1.43;;
19780;SDS011;10050;55.492;13.506;2023-07-13T10:50:59;3.10;;;1.50;;
19780;SDS011;10050;55.492;13.506;2023-07-13T10:53:33;4.80;;;1.93;;
19780;SDS011;10050;55.492;13.506;2023-07-13T10:56:04;2.83;;;1.53;;
19780;SDS011;10050;55.492;13.506;2023-07-13T10:58:46;5.10;;;1.90;;
19780;SDS011;10050;55.492;13.506;2023-07-13T11:01:13;2.27;;;1.30;;
19780;SDS011;10050;55.492;13.506;2023-07-13T11:18:47;2.23;;;0.80;;
19780;SDS011;10050;55.492;13.506;2023-07-13T11:23:45;5.80;;;1.97;;
19780;SDS011;10050;55.492;13.506;2023-07-13T11:31:57;1.60;;;1.17;;
19780;SDS011;10050;55.492;13.506;2023-07-13T11:34:32;3.80;;;1.10;;
19780;SDS011;10050;55.492;13.506;2023-07-13T11:37:01;1.20;;;0.83;;
19780;SDS011;10050;55.492;13.506;2023-07-13T11:39:31;3.13;;;1.23;;
19780;SDS011;10050;55.492;13.506;2023-07-13T11:42:03;2.73;;;1.13;;
19780;SDS011;10050;55.492;13.506;2023-07-13T11:44:34;1.60;;;1.00;;
19780;SDS011;10050;55.492;13.506;2023-07-13T11:47:10;1.57;;;1.03;;
19780;SDS011;10050;55.492;13.506;2023-07-13T11:49:48;3.60;;;0.93;;
19780;SDS011;10050;55.492;13.506;2023-07-13T11:52:18;2.27;;;1.03;;
19780;SDS011;10050;55.492;13.506;2023-07-13T11:54:50;3.53;;;0.93;;
19780;SDS011;10050;55.492;13.506;2023-07-13T12:00:05;2.60;;;1.10;;
19780;SDS011;10050;55.492;13.506;2023-07-13T12:02:40;2.20;;;1.10;;
19780;SDS011;10050;55.492;13.506;2023-07-13T12:05:13;1.13;;;0.80;;
19780;SDS011;10050;55.492;13.506;2023-07-13T12:07:42;2.00;;;1.10;;
19780;SDS011;10050;55.492;13.506;2023-07-13T12:12:36;1.67;;;0.90;;
19780;SDS011;10050;55.492;13.506;2023-07-13T12:15:06;0.80;;;0.80;;
19780;SDS011;10050;55.492;13.506;2023-07-13T12:17:33;2.33;;;0.90;;
19780;SDS011;10050;55.492;13.506;2023-07-13T12:20:00;0.80;;;0.80;;
19780;SDS011;10050;55.492;13.506;2023-07-13T12:22:33;1.30;;;1.03;;
19780;SDS011;10050;55.492;13.506;2023-07-13T12:24:59;1.90;;;0.87;;
19780;SDS011;10050;55.492;13.506;2023-07-13T12:27:26;0.80;;;0.80;;
19780;SDS011;10050;55.492;13.506;2023-07-13T12:30:03;1.17;;;1.00;;
19780;SDS011;10050;55.492;13.506;2023-07-13T12:32:31;1.30;;;0.93;;
19780;SDS011;10050;55.492;13.506;2023-07-13T12:35:18;3.40;;;1.07;;
19780;SDS011;10050;55.492;13.506;2023-07-13T12:37:44;2.43;;;1.00;;
19780;SDS011;10050;55.492;13.506;2023-07-13T12:40:15;3.77;;;1.10;;
19780;SDS011;10050;55.492;13.506;2023-07-13T12:42:45;2.07;;;1.00;;
19780;SDS011;10050;55.492;13.506;2023-07-13T12:45:20;2.13;;;1.00;;
19780;SDS011;10050;55.492;13.506;2023-07-13T12:47:54;0.80;;;0.80;;
19780;SDS011;10050;55.492;13.506;2023-07-13T12:50:29;2.97;;;0.90;;
19780;SDS011;10050;55.492;13.506;2023-07-13T12:53:03;2.27;;;0.83;;
19780;SDS011;10050;55.492;13.506;2023-07-13T12:55:37;1.47;;;0.90;;
19780;SDS011;10050;55.492;13.506;2023-07-13T12:58:17;1.40;;;1.00;;
19780;SDS011;10050;55.492;13.506;2023-07-13T13:00:50;1.80;;;1.00;;
19780;SDS011;10050;55.492;13.506;2023-07-13T13:03:52;2.20;;;1.10;;
19780;SDS011;10050;55.492;13.506;2023-07-13T13:08:41;1.07;;;0.80;;
19780;SDS011;10050;55.492;13.506;2023-07-13T13:11:08;2.77;;;1.00;;
19780;SDS011;10050;55.492;13.506;2023-07-13T13:13:34;1.37;;;0.90;;
19780;SDS011;10050;55.492;13.506;2023-07-13T13:19:21;3.23;;;1.10;;
19780;SDS011;10050;55.492;13.506;2023-07-13T13:21:49;4.07;;;1.20;;
19780;SDS011;10050;55.492;13.506;2023-07-13T13:24:18;3.40;;;1.40;;
19780;SDS011;10050;55.492;13.506;2023-07-13T13:26:47;2.00;;;0.90;;
19780;SDS011;10050;55.492;13.506;2023-07-13T13:29:15;3.60;;;1.27;;
19780;SDS011;10050;55.492;13.506;2023-07-13T13:31:45;2.50;;;1.13;;
19780;SDS011;10050;55.492;13.506;2023-07-13T13:34:13;1.30;;;1.10;;
19780;SDS011;10050;55.492;13.506;2023-07-13T13:36:40;3.10;;;1.30;;
19780;SDS011;10050;55.492;13.506;2023-07-13T13:39:16;2.30;;;1.50;;
19780;SDS011;10050;55.492;13.506;2023-07-13T13:41:50;2.50;;;1.20;;
19780;SDS011;10050;55.492;13.506;2023-07-13T13:44:18;3.23;;;1.53;;
19780;SDS011;10050;55.492;13.506;2023-07-13T13:46:48;2.37;;;1.47;;
19780;SDS011;10050;55.492;13.506;2023-07-13T13:49:17;2.17;;;1.57;;
19780;SDS011;10050;55.492;13.506;2023-07-13T13:51:46;5.23;;;1.47;;
19780;SDS011;10050;55.492;13.506;2023-07-13T13:54:13;3.53;;;1.77;;
19780;SDS011;10050;55.492;13.506;2023-07-13T13:56:46;2.80;;;1.77;;
19780;SDS011;10050;55.492;13.506;2023-07-13T13:59:14;2.93;;;1.40;;
19780;SDS011;10050;55.492;13.506;2023-07-13T14:01:40;2.43;;;1.77;;
19780;SDS011;10050;55.492;13.506;2023-07-13T14:04:09;2.77;;;1.50;;
19780;SDS011;10050;55.492;13.506;2023-07-13T14:06:41;1.87;;;1.27;;
19780;SDS011;10050;55.492;13.506;2023-07-13T14:09:08;1.80;;;1.33;;
19780;SDS011;10050;55.492;13.506;2023-07-13T14:11:38;2.93;;;1.20;;
19780;SDS011;10050;55.492;13.506;2023-07-13T14:14:08;2.97;;;1.53;;
19780;SDS011;10050;55.492;13.506;2023-07-13T14:16:39;2.50;;;1.40;;
19780;SDS011;10050;55.492;13.506;2023-07-13T14:19:07;3.43;;;1.57;;
19780;SDS011;10050;55.492;13.506;2023-07-13T14:21:36;3.97;;;1.77;;
19780;SDS011;10050;55.492;13.506;2023-07-13T14:24:02;2.73;;;1.33;;
19780;SDS011;10050;55.492;13.506;2023-07-13T14:26:29;3.80;;;1.70;;
19780;SDS011;10050;55.492;13.506;2023-07-13T14:29:01;2.20;;;1.17;;
19780;SDS011;10050;55.492;13.506;2023-07-13T14:31:27;5.73;;;1.30;;
19780;SDS011;10050;55.492;13.506;2023-07-13T14:33:56;2.50;;;1.00;;
19780;SDS011;10050;55.492;13.506;2023-07-13T14:36:26;1.90;;;1.10;;
19780;SDS011;10050;55.492;13.506;2023-07-13T14:38:59;1.87;;;1.10;;
19780;SDS011;10050;55.492;13.506;2023-07-13T14:41:27;1.83;;;1.20;;
19780;SDS011;10050;55.492;13.506;2023-07-13T14:43:52;4.10;;;1.67;;
19780;SDS011;10050;55.492;13.506;2023-07-13T14:46:29;3.37;;;1.53;;
19780;SDS011;10050;55.492;13.506;2023-07-13T14:49:01;1.63;;;1.40;;
19780;SDS011;10050;55.492;13.506;2023-07-13T14:51:31;2.20;;;1.30;;
19780;SDS011;10050;55.492;13.506;2023-07-13T14:54:00;1.70;;;1.30;;
19780;SDS011;10050;55.492;13.506;2023-07-13T14:56:28;2.73;;;1.40;;
19780;SDS011;10050;55.492;13.506;2023-07-13T14:58:54;2.37;;;1.20;;
19780;SDS011;10050;55.492;13.506;2023-07-13T15:01:19;2.10;;;1.40;;
19780;SDS011;10050;55.492;13.506;2023-07-13T15:03:47;1.43;;;1.10;;
19780;SDS011;10050;55.492;13.506;2023-07-13T15:06:15;1.67;;;1.17;;
19780;SDS011;10050;55.492;13.506;2023-07-13T15:08:41;3.10;;;1.30;;
19780;SDS011;10050;55.492;13.506;2023-07-13T15:11:07;1.40;;;1.00;;
19780;SDS011;10050;55.492;13.506;2023-07-13T15:13:36;1.67;;;1.10;;
19780;SDS011;10050;55.492;13.506;2023-07-13T15:16:03;2.83;;;1.57;;
19780;SDS011;10050;55.492;13.506;2023-07-13T15:18:30;1.43;;;1.33;;
19780;SDS011;10050;55.492;13.506;2023-07-13T15:20:56;3.63;;;3.33;;
19780;SDS011;10050;55.492;13.506;2023-07-13T15:23:25;2.33;;;1.60;;
19780;SDS011;10050;55.492;13.506;2023-07-13T15:25:52;1.47;;;1.37;;
19780;SDS011;10050;55.492;13.506;2023-07-13T15:28:17;3.00;;;1.60;;
19780;SDS011;10050;55.492;13.506;2023-07-13T15:30:49;2.10;;;1.13;;
19780;SDS011;10050;55.492;13.506;2023-07-13T15:35:54;1.53;;;1.10;;
19780;SDS011;10050;55.492;13.506;2023-07-13T15:38:22;1.83;;;1.13;;
19780;SDS011;10050;55.492;13.506;2023-07-13T15:40:50;1.67;;;1.23;;
19780;SDS011;10050;55.492;13.506;2023-07-13T15:43:17;1.63;;;1.00;;